Time;durP1;ratioP1;P1;durP2;ratioP2;P2;SDS_P1;SDS_P2;PMS_P1;PMS_P2;Temp;Humidity;BMP_temperature;BMP_pressure;BME280_temperature;BME280_humidity;BME280_pressure;Samples;Min_cycle;Max_cycle;Signal;HPM_P1;HPM_P2
2020/12/05 00:02:22;;;;;;;5.93;5.43;;;4.70;99.90;;;;;;5040066;28;20485;-73
2020/12/05 00:04:49;;;;;;;6.33;4.83;;;4.70;99.90;;;;;;5045187;28;20476;-73
2020/12/05 00:07:16;;;;;;;23.03;5.77;;;4.80;99.90;;;;;;5041953;28;20427;-72
2020/12/05 00:09:43;;;;;;;5.90;5.27;;;4.90;99.90;;;;;;5032386;28;20450;-73
2020/12/05 00:12:10;;;;;;;5.97;4.73;;;4.80;99.90;;;;;;5050216;28;20462;-74
2020/12/05 00:14:37;;;;;;;6.17;4.23;;;4.90;99.90;;;;;;5056323;28;20453;-74
2020/12/05 00:17:05;;;;;;;9.00;7.50;;;4.80;99.90;;;;;;5050772;28;20463;-73
2020/12/05 00:19:31;;;;;;;9.03;6.47;;;4.70;99.90;;;;;;5052563;28;20571;-73
2020/12/05 00:21:58;;;;;;;5.90;4.60;;;4.70;99.90;;;;;;5053375;28;20438;-74
2020/12/05 00:24:25;;;;;;;7.60;5.23;;;4.70;99.90;;;;;;5049470;28;20422;-73
2020/12/05 00:26:53;;;;;;;8.03;4.93;;;4.70;99.90;;;;;;5048302;28;20821;-74
2020/12/05 00:29:20;;;;;;;5.67;4.70;;;4.60;99.90;;;;;;5053978;28;20477;-73
2020/12/05 00:31:50;;;;;;;6.70;4.90;;;4.40;99.90;;;;;;5054134;28;20458;-74
2020/12/05 00:34:17;;;;;;;5.83;5.27;;;4.30;99.90;;;;;;5050487;28;20970;-73
2020/12/05 00:36:44;;;;;;;8.87;6.13;;;4.40;99.90;;;;;;5045534;28;20437;-74
2020/12/05 00:39:11;;;;;;;12.20;7.63;;;4.40;99.90;;;;;;5026289;28;20434;-74
2020/12/05 00:41:38;;;;;;;8.10;6.87;;;4.40;99.90;;;;;;5045048;28;20426;-74
2020/12/05 00:44:04;;;;;;;8.17;5.47;;;4.40;99.90;;;;;;5050972;28;20465;-72
2020/12/05 00:46:31;;;;;;;10.70;5.90;;;4.50;99.90;;;;;;5046658;28;22325;-73
2020/12/05 00:48:58;;;;;;;6.50;5.10;;;4.40;99.90;;;;;;5049139;28;20520;-73
2020/12/05 00:51:25;;;;;;;9.53;5.57;;;4.50;99.90;;;;;;5032082;28;20852;-74
2020/12/05 00:53:52;;;;;;;7.90;6.90;;;4.50;99.90;;;;;;5049309;28;20483;-73
2020/12/05 00:56:20;;;;;;;8.50;5.07;;;4.50;99.90;;;;;;5048144;28;20482;-73
2020/12/05 00:58:47;;;;;;;7.87;5.73;;;4.40;99.90;;;;;;5044305;28;20442;-74
2020/12/05 01:01:14;;;;;;;8.63;6.70;;;4.50;99.90;;;;;;5047444;28;20472;-74
2020/12/05 01:03:41;;;;;;;6.03;4.97;;;4.60;99.90;;;;;;5044784;28;20492;-75
2020/12/05 01:06:11;;;;;;;6.30;5.70;;;4.70;99.90;;;;;;5050533;28;20506;-73
2020/12/05 01:08:40;;;;;;;7.70;6.27;;;4.90;99.90;;;;;;5049236;28;20456;-74
2020/12/05 01:11:14;;;;;;;10.90;6.47;;;4.90;99.90;;;;;;5044780;28;20462;-72
2020/12/05 01:13:41;;;;;;;9.03;7.00;;;4.80;99.90;;;;;;5051495;28;20472;-73
2020/12/05 01:16:11;;;;;;;7.90;6.57;;;4.80;99.90;;;;;;5046976;28;20454;-74
2020/12/05 01:18:38;;;;;;;7.37;5.90;;;4.70;99.90;;;;;;5044220;28;20480;-74
2020/12/05 01:21:08;;;;;;;6.63;5.37;;;4.70;99.90;;;;;;5049936;28;20539;-73
2020/12/05 01:23:35;;;;;;;8.70;6.70;;;4.60;99.90;;;;;;5046492;28;20429;-73
2020/12/05 01:26:02;;;;;;;14.17;7.97;;;4.50;99.90;;;;;;5043147;28;20531;-74
2020/12/05 01:28:29;;;;;;;6.87;6.17;;;4.60;99.90;;;;;;5047648;28;20456;-74
2020/12/05 01:30:56;;;;;;;11.60;7.40;;;4.60;99.90;;;;;;5044768;28;21070;-74
2020/12/05 01:33:22;;;;;;;12.93;7.40;;;4.70;99.90;;;;;;5041990;28;20446;-73
2020/12/05 01:35:49;;;;;;;8.90;6.20;;;4.60;99.90;;;;;;5046124;28;20503;-73
2020/12/05 01:38:16;;;;;;;9.20;7.73;;;4.60;99.90;;;;;;5047553;28;20520;-73
2020/12/05 01:40:50;;;;;;;9.97;6.63;;;4.50;99.90;;;;;;5043983;28;20457;-74
2020/12/05 01:43:18;;;;;;;7.43;5.90;;;4.80;99.90;;;;;;5047478;28;20725;-74
2020/12/05 01:45:46;;;;;;;8.73;6.50;;;4.80;99.90;;;;;;5044758;28;20488;-74
2020/12/05 01:48:13;;;;;;;12.43;8.23;;;4.80;99.90;;;;;;5048242;28;20460;-74
2020/12/05 01:50:40;;;;;;;11.10;6.77;;;4.70;99.90;;;;;;5044561;28;20512;-73
2020/12/05 01:53:07;;;;;;;14.50;9.07;;;4.60;99.90;;;;;;5047001;28;20956;-74
2020/12/05 01:55:33;;;;;;;8.10;6.00;;;4.60;99.90;;;;;;5042822;28;20474;-73
2020/12/05 01:58:00;;;;;;;6.97;5.63;;;4.70;99.90;;;;;;5045348;28;20826;-74
2020/12/05 02:00:27;;;;;;;14.00;7.17;;;4.70;99.90;;;;;;5045521;28;21105;-74
2020/12/05 02:02:54;;;;;;;9.40;7.57;;;4.80;99.90;;;;;;5045633;28;20460;-75
2020/12/05 02:05:28;;;;;;;6.43;4.60;;;4.80;99.90;;;;;;5046449;28;20512;-72
2020/12/05 02:08:01;;;;;;;6.83;5.53;;;4.90;99.90;;;;;;5046546;28;20459;-75
2020/12/05 02:10:31;;;;;;;6.40;5.77;;;4.90;99.90;;;;;;5051268;28;20506;-75
2020/12/05 02:13:04;;;;;;;10.43;5.73;;;4.90;99.90;;;;;;5062998;28;20465;-74
2020/12/05 02:15:33;;;;;;;8.60;6.87;;;4.80;99.90;;;;;;5068702;28;20459;-73
2020/12/05 02:18:02;;;;;;;8.07;6.67;;;4.80;99.90;;;;;;5066634;28;20464;-73
2020/12/05 02:20:32;;;;;;;9.30;5.50;;;4.70;99.90;;;;;;5052584;28;20456;-73
2020/12/05 02:23:07;;;;;;;6.33;5.73;;;4.60;99.90;;;;;;5040384;28;20442;-73
2020/12/05 02:25:34;;;;;;;12.03;6.10;;;4.60;99.90;;;;;;5038734;28;20528;-73
2020/12/05 02:28:06;;;;;;;10.17;5.63;;;4.70;99.90;;;;;;5041237;28;20575;-73
2020/12/05 02:30:33;;;;;;;8.00;5.50;;;4.70;99.90;;;;;;5040064;28;20458;-73
2020/12/05 02:33:00;;;;;;;7.10;6.33;;;4.70;99.90;;;;;;5041245;28;20462;-73
2020/12/05 02:35:26;;;;;;;9.03;6.37;;;4.90;99.90;;;;;;5040130;28;20476;-73
2020/12/05 02:37:57;;;;;;;7.70;5.67;;;5.00;99.90;;;;;;5044209;28;20504;-72
2020/12/05 02:40:25;;;;;;;9.20;5.00;;;5.00;99.90;;;;;;5044332;28;20439;-73
2020/12/05 02:42:52;;;;;;;9.70;4.87;;;5.00;99.90;;;;;;5047151;28;20468;-74
2020/12/05 02:45:18;;;;;;;8.70;6.83;;;5.00;99.90;;;;;;5048715;28;20519;-73
2020/12/05 02:47:45;;;;;;;8.30;4.83;;;5.10;99.90;;;;;;5048433;28;20438;-74
2020/12/05 02:50:12;;;;;;;10.63;6.87;;;5.10;99.90;;;;;;5045009;28;20488;-72
2020/12/05 02:52:38;;;;;;;6.90;4.53;;;5.10;99.90;;;;;;5045952;28;20998;-73
2020/12/05 02:55:05;;;;;;;7.53;5.70;;;5.10;99.90;;;;;;5047347;28;21090;-73
2020/12/05 02:57:32;;;;;;;6.10;5.50;;;5.00;99.90;;;;;;5050770;28;20555;-74
2020/12/05 02:59:59;;;;;;;9.90;5.50;;;5.20;99.90;;;;;;5052330;28;20800;-74
2020/12/05 03:02:26;;;;;;;5.10;4.60;;;5.10;99.90;;;;;;5049527;28;20960;-73
2020/12/05 03:04:52;;;;;;;9.07;5.97;;;4.90;99.90;;;;;;5046529;28;21060;-73
2020/12/05 03:07:19;;;;;;;7.00;5.03;;;5.00;99.90;;;;;;5048073;28;20437;-73
2020/12/05 03:09:46;;;;;;;7.07;5.30;;;4.90;99.90;;;;;;5045839;28;21050;-73
2020/12/05 03:12:13;;;;;;;7.63;6.87;;;5.00;99.90;;;;;;5054413;28;20539;-72
2020/12/05 03:14:40;;;;;;;10.83;7.70;;;5.10;99.90;;;;;;5051332;28;20464;-73
2020/12/05 03:17:07;;;;;;;8.73;7.10;;;5.10;99.90;;;;;;5051133;28;20435;-74
2020/12/05 03:19:33;;;;;;;15.73;7.83;;;5.30;99.90;;;;;;5048380;28;20492;-73
2020/12/05 03:22:00;;;;;;;10.73;9.50;;;5.40;99.90;;;;;;5046537;28;21107;-74
2020/12/05 03:24:27;;;;;;;9.40;7.87;;;5.40;99.90;;;;;;5047136;28;20456;-74
2020/12/05 03:26:54;;;;;;;17.20;12.00;;;5.50;99.90;;;;;;5051226;28;20461;-73
2020/12/05 03:29:21;;;;;;;11.03;7.13;;;5.60;99.90;;;;;;5040904;28;20461;-72
2020/12/05 03:31:51;;;;;;;8.23;6.43;;;5.60;99.90;;;;;;5056427;28;20444;-74
2020/12/05 03:34:17;;;;;;;7.87;5.57;;;5.60;99.90;;;;;;5050725;28;20495;-72
2020/12/05 03:36:44;;;;;;;9.27;5.93;;;5.50;99.90;;;;;;5046426;28;20835;-74
2020/12/05 03:39:11;;;;;;;10.03;7.20;;;5.40;99.90;;;;;;5053217;28;20455;-73
2020/12/05 03:41:38;;;;;;;7.10;6.37;;;5.30;99.90;;;;;;5057231;28;20442;-73
2020/12/05 03:44:04;;;;;;;9.07;6.67;;;5.30;99.90;;;;;;5061099;28;20452;-73
2020/12/05 03:46:31;;;;;;;12.97;8.13;;;5.40;99.90;;;;;;5051497;28;20534;-73
2020/12/05 03:48:59;;;;;;;10.70;5.80;;;5.40;99.90;;;;;;5051060;28;20510;-73
2020/12/05 03:51:26;;;;;;;7.33;5.80;;;5.30;99.90;;;;;;5050978;28;20480;-74
2020/12/05 03:53:53;;;;;;;12.70;7.33;;;5.40;99.90;;;;;;5051266;28;20553;-74
2020/12/05 03:56:19;;;;;;;10.63;6.73;;;5.40;99.90;;;;;;5050707;28;20563;-73
2020/12/05 03:58:46;;;;;;;10.43;7.80;;;5.60;99.90;;;;;;5048425;28;20523;-73
2020/12/05 04:01:13;;;;;;;8.43;5.97;;;5.60;99.90;;;;;;5053058;28;20816;-74
2020/12/05 04:03:40;;;;;;;11.87;7.37;;;5.70;99.90;;;;;;5047974;28;20959;-74
2020/12/05 04:06:07;;;;;;;12.73;6.60;;;5.80;99.90;;;;;;5045083;28;20499;-73
2020/12/05 04:08:34;;;;;;;13.10;7.60;;;5.70;99.90;;;;;;5045739;28;20495;-74
2020/12/05 04:11:00;;;;;;;11.47;7.03;;;5.70;99.90;;;;;;5049810;28;20526;-74
2020/12/05 04:13:27;;;;;;;10.30;7.27;;;5.60;99.90;;;;;;5055283;28;20451;-73
2020/12/05 04:15:54;;;;;;;12.93;6.37;;;5.60;99.90;;;;;;5049068;28;20454;-74
2020/12/05 04:18:21;;;;;;;7.43;6.00;;;5.60;99.90;;;;;;5051250;28;20445;-73
2020/12/05 04:20:47;;;;;;;15.53;7.40;;;5.70;99.90;;;;;;5048449;28;20582;-73
2020/12/05 04:23:15;;;;;;;11.10;6.60;;;5.70;99.90;;;;;;5051038;28;20527;-74
2020/12/05 04:25:42;;;;;;;8.43;7.07;;;5.70;99.90;;;;;;5049979;28;20554;-73
2020/12/05 04:28:08;;;;;;;12.43;8.03;;;5.70;99.90;;;;;;5042257;28;20924;-73
2020/12/05 04:30:35;;;;;;;8.10;7.10;;;5.60;99.90;;;;;;5042166;28;21556;-73
2020/12/05 04:33:02;;;;;;;8.60;7.40;;;5.60;99.90;;;;;;5044582;28;20496;-73
2020/12/05 04:35:28;;;;;;;7.93;6.23;;;5.40;99.90;;;;;;5045447;28;20585;-73
2020/12/05 04:37:55;;;;;;;13.73;7.57;;;5.30;99.90;;;;;;5047202;28;20820;-74
2020/12/05 04:40:23;;;;;;;11.40;7.40;;;5.20;99.90;;;;;;5045620;28;20460;-72
2020/12/05 04:42:50;;;;;;;10.33;7.23;;;5.20;99.90;;;;;;5045682;28;20469;-72
2020/12/05 04:45:17;;;;;;;10.10;6.13;;;5.10;99.90;;;;;;5044499;28;20557;-72
2020/12/05 04:47:45;;;;;;;8.87;6.87;;;5.20;99.90;;;;;;5045622;28;20818;-75
2020/12/05 04:50:14;;;;;;;9.53;7.73;;;5.30;99.90;;;;;;5047830;28;20455;-74
2020/12/05 04:52:49;;;;;;;10.47;6.70;;;5.40;99.90;;;;;;5051240;28;20776;-73
2020/12/05 04:55:16;;;;;;;14.40;8.07;;;5.40;99.90;;;;;;5046833;28;20478;-73
2020/12/05 04:57:48;;;;;;;10.50;7.90;;;5.40;99.90;;;;;;5045963;28;20798;-73
2020/12/05 05:00:16;;;;;;;9.50;8.03;;;5.50;99.90;;;;;;5045187;28;20899;-73
2020/12/05 05:02:44;;;;;;;10.00;7.60;;;5.60;99.90;;;;;;5046748;28;20464;-74
2020/12/05 05:05:13;;;;;;;9.53;6.97;;;5.70;99.90;;;;;;5046923;28;21304;-74
2020/12/05 05:07:47;;;;;;;9.80;7.70;;;5.70;99.90;;;;;;5047116;28;20562;-74
2020/12/05 05:10:20;;;;;;;11.57;7.63;;;5.70;99.90;;;;;;5043029;28;20557;-72
2020/12/05 05:12:48;;;;;;;11.20;8.00;;;5.60;99.90;;;;;;5048248;28;20490;-74
2020/12/05 05:15:28;;;;;;;10.70;7.07;;;5.60;99.90;;;;;;5051125;28;20577;-74
2020/12/05 05:17:55;;;;;;;13.87;9.03;;;5.60;99.90;;;;;;5052628;28;20483;-74
2020/12/05 05:20:22;;;;;;;10.20;6.53;;;5.60;99.90;;;;;;5053809;28;20455;-74
2020/12/05 05:22:52;;;;;;;9.63;7.83;;;5.60;99.90;;;;;;5052245;28;20580;-73
2020/12/05 05:25:21;;;;;;;12.67;8.83;;;5.50;99.90;;;;;;5049063;28;20573;-74
2020/12/05 05:28:03;;;;;;;7.87;6.83;;;5.60;99.90;;;;;;5045814;28;20949;-74
2020/12/05 05:30:29;;;;;;;11.17;7.33;;;5.50;99.90;;;;;;5043764;28;20464;-74
2020/12/05 05:33:05;;;;;;;11.73;7.87;;;5.60;99.90;;;;;;5051255;28;20467;-73
2020/12/05 05:35:38;;;;;;;11.10;7.33;;;5.50;99.90;;;;;;5047703;28;20491;-74
2020/12/05 05:38:04;;;;;;;8.07;6.67;;;5.50;99.90;;;;;;5055696;28;20521;-73
2020/12/05 05:40:31;;;;;;;9.83;7.57;;;5.60;99.90;;;;;;5049004;28;20862;-73
2020/12/05 05:42:58;;;;;;;8.53;7.33;;;5.60;99.90;;;;;;5045517;28;20472;-74
2020/12/05 05:45:27;;;;;;;11.17;7.17;;;5.60;99.90;;;;;;5047681;28;20474;-73
2020/12/05 05:48:00;;;;;;;10.23;7.43;;;5.70;99.90;;;;;;5043798;28;20438;-73
2020/12/05 05:50:29;;;;;;;6.43;5.73;;;5.60;99.90;;;;;;5050301;28;20479;-73
2020/12/05 05:52:58;;;;;;;14.80;7.80;;;5.60;99.90;;;;;;5052414;28;20456;-73
2020/12/05 05:55:44;;;;;;;11.80;9.20;;;5.60;99.90;;;;;;5045807;28;20467;-73
2020/12/05 05:58:11;;;;;;;15.50;10.17;;;5.60;99.90;;;;;;5045014;28;20554;-73
2020/12/05 06:00:40;;;;;;;21.20;13.00;;;5.60;99.90;;;;;;5050728;28;20471;-73
2020/12/05 06:03:22;;;;;;;15.00;10.60;;;5.60;99.90;;;;;;5049464;28;20483;-74
2020/12/05 06:05:51;;;;;;;23.40;13.77;;;5.70;99.90;;;;;;5042396;28;20462;-73
2020/12/05 06:08:19;;;;;;;12.67;8.63;;;5.70;99.90;;;;;;5047536;28;20445;-73
2020/12/05 06:10:55;;;;;;;9.90;7.77;;;5.70;99.90;;;;;;5044056;28;20460;-73
2020/12/05 06:13:26;;;;;;;16.40;9.20;;;5.60;99.90;;;;;;5047207;28;20430;-73
2020/12/05 06:15:54;;;;;;;12.10;7.37;;;5.60;99.90;;;;;;5044556;28;20484;-73
2020/12/05 06:18:21;;;;;;;19.97;10.37;;;5.60;99.90;;;;;;5050934;28;20457;-73
2020/12/05 06:20:48;;;;;;;15.37;10.20;;;5.70;99.90;;;;;;5049995;28;20459;-74
2020/12/05 06:23:35;;;;;;;14.77;11.20;;;5.70;99.90;;;;;;5044128;28;20535;-70
2020/12/05 06:26:03;;;;;;;12.47;9.20;;;5.60;99.90;;;;;;5039900;28;20513;-74
2020/12/05 06:28:30;;;;;;;13.37;8.30;;;5.60;99.90;;;;;;5044664;28;20460;-74
2020/12/05 06:30:58;;;;;;;13.53;9.80;;;5.60;99.90;;;;;;5044236;28;20861;-74
2020/12/05 06:33:42;;;;;;;14.47;8.00;;;5.50;99.90;;;;;;5040181;28;20608;-74
2020/12/05 06:36:37;;;;;;;22.63;10.20;;;5.60;99.90;;;;;;5039386;28;21080;-72
2020/12/05 06:39:15;;;;;;;16.97;8.83;;;5.70;99.90;;;;;;5035401;28;20783;-73
2020/12/05 06:41:43;;;;;;;12.47;7.80;;;5.60;99.90;;;;;;5041381;28;20445;-74
2020/12/05 06:44:13;;;;;;;10.27;5.90;;;5.50;99.90;;;;;;5041945;28;20449;-73
2020/12/05 06:46:55;;;;;;;12.87;10.13;;;5.50;99.90;;;;;;5046800;28;20559;-74
2020/12/05 06:49:49;;;;;;;10.27;6.20;;;5.50;99.90;;;;;;5047160;28;20459;-74
2020/12/05 06:52:38;;;;;;;12.27;8.20;;;5.40;99.90;;;;;;5018874;28;20490;-73
2020/12/05 06:55:13;;;;;;;10.53;7.30;;;5.30;99.90;;;;;;5046122;28;20982;-74
2020/12/05 06:57:42;;;;;;;11.03;7.63;;;5.30;99.90;;;;;;5046840;28;20979;-74
2020/12/05 07:00:23;;;;;;;18.33;9.60;;;5.20;99.90;;;;;;5042980;28;20886;-74
2020/12/05 07:02:56;;;;;;;15.93;10.53;;;5.20;99.90;;;;;;5046244;28;20477;-74
2020/12/05 07:05:24;;;;;;;13.23;9.90;;;5.50;99.90;;;;;;5044044;28;20471;-74
2020/12/05 07:07:53;;;;;;;12.00;7.80;;;5.60;99.90;;;;;;5045780;28;20483;-73
2020/12/05 07:10:21;;;;;;;9.90;7.40;;;5.70;99.90;;;;;;5042098;28;20581;-73
2020/12/05 07:12:48;;;;;;;10.37;7.03;;;5.80;99.90;;;;;;5047401;28;20431;-74
2020/12/05 07:15:23;;;;;;;4.53;4.13;;;5.80;99.90;;;;;;5045235;28;20544;-74
2020/12/05 07:17:50;;;;;;;17.73;9.80;;;5.90;99.90;;;;;;5044207;28;20866;-74
2020/12/05 07:20:17;;;;;;;19.93;9.90;;;5.80;99.90;;;;;;5040936;28;20516;-73
2020/12/05 07:22:46;;;;;;;16.43;11.20;;;5.80;99.90;;;;;;5049974;28;20506;-72
2020/12/05 07:25:13;;;;;;;17.00;10.23;;;5.80;99.90;;;;;;5046980;28;20483;-73
2020/12/05 07:27:39;;;;;;;19.00;10.67;;;5.80;99.90;;;;;;5054830;28;20893;-72
2020/12/05 07:30:07;;;;;;;14.70;10.13;;;5.70;99.90;;;;;;5052504;28;20456;-74
2020/12/05 07:32:35;;;;;;;27.33;11.77;;;5.80;99.90;;;;;;5070965;28;20422;-73
2020/12/05 07:35:04;;;;;;;11.17;8.53;;;5.80;99.90;;;;;;5068805;28;20502;-72
2020/12/05 07:37:34;;;;;;;14.00;9.37;;;5.80;99.90;;;;;;5069486;28;20916;-74
2020/12/05 07:40:01;;;;;;;18.80;12.03;;;5.70;99.90;;;;;;5043033;28;20455;-74
2020/12/05 07:42:33;;;;;;;16.40;10.73;;;5.70;99.90;;;;;;5049376;28;20459;-74
2020/12/05 07:45:04;;;;;;;15.63;9.67;;;5.70;99.90;;;;;;5046069;28;20519;-74
2020/12/05 07:47:31;;;;;;;17.90;12.23;;;5.70;99.90;;;;;;5049474;28;21028;-74
2020/12/05 07:49:59;;;;;;;18.90;11.00;;;5.70;99.90;;;;;;5027922;28;20431;-74
2020/12/05 07:52:27;;;;;;;33.80;14.00;;;5.60;99.90;;;;;;5040326;28;20549;-74
2020/12/05 07:54:58;;;;;;;20.23;11.47;;;5.60;99.90;;;;;;5042488;28;20553;-73
2020/12/05 07:57:25;;;;;;;23.40;12.20;;;5.60;99.90;;;;;;5054775;28;20459;-74
2020/12/05 08:00:00;;;;;;;22.23;10.80;;;5.60;99.90;;;;;;5055259;28;20490;-74
2020/12/05 08:02:52;;;;;;;14.90;11.40;;;5.70;99.90;;;;;;5054170;28;20984;-74
2020/12/05 08:05:29;;;;;;;15.90;10.73;;;5.70;99.90;;;;;;5056669;28;20450;-72
2020/12/05 08:08:02;;;;;;;17.40;10.50;;;5.80;99.90;;;;;;5079248;28;20521;-73
2020/12/05 08:10:31;;;;;;;18.73;11.50;;;5.90;99.90;;;;;;5055284;28;20516;-73
2020/12/05 08:13:19;;;;;;;17.43;11.17;;;5.80;99.90;;;;;;5059926;28;20463;-74
2020/12/05 08:15:47;;;;;;;15.70;9.77;;;5.80;99.90;;;;;;5050156;28;20580;-74
2020/12/05 08:18:15;;;;;;;25.17;15.27;;;5.80;99.90;;;;;;5050596;28;20491;-73
2020/12/05 08:20:43;;;;;;;23.67;12.97;;;5.90;99.90;;;;;;5046885;28;20462;-74
2020/12/05 08:23:20;;;;;;;15.30;9.40;;;6.00;99.90;;;;;;5048063;28;20460;-73
2020/12/05 08:25:49;;;;;;;24.10;13.17;;;5.90;99.90;;;;;;5049923;28;20478;-73
2020/12/05 08:28:19;;;;;;;11.80;7.63;;;5.90;99.90;;;;;;5053685;28;20503;-74
2020/12/05 08:30:46;;;;;;;11.00;7.03;;;5.90;99.90;;;;;;5048470;28;20460;-74
2020/12/05 08:33:14;;;;;;;18.17;10.13;;;6.10;99.90;;;;;;5054078;28;20504;-73
2020/12/05 08:35:42;;;;;;;13.23;8.90;;;6.20;99.90;;;;;;5046502;28;20536;-74
2020/12/05 08:38:13;;;;;;;14.73;9.93;;;6.60;99.90;;;;;;5049602;28;20463;-73
2020/12/05 08:40:40;;;;;;;12.63;10.27;;;7.10;99.90;;;;;;5048239;28;20516;-74
2020/12/05 08:43:07;;;;;;;10.10;6.90;;;7.80;99.90;;;;;;5052080;28;20475;-73
2020/12/05 08:45:39;;;;;;;10.13;7.43;;;8.60;99.90;;;;;;5047873;28;20495;-73
2020/12/05 08:48:17;;;;;;;9.80;8.80;;;9.10;99.90;;;;;;5049414;28;20501;-73
2020/12/05 08:50:45;;;;;;;13.70;7.97;;;9.20;99.90;;;;;;5049886;28;20550;-73
2020/12/05 08:53:13;;;;;;;15.03;9.07;;;9.00;99.90;;;;;;5048923;28;20459;-74
2020/12/05 08:55:46;;;;;;;13.90;8.87;;;8.90;99.90;;;;;;5050246;28;20487;-73
2020/12/05 08:58:13;;;;;;;16.33;8.70;;;8.90;99.90;;;;;;5042578;28;20593;-73
2020/12/05 09:00:40;;;;;;;13.83;8.97;;;8.80;99.90;;;;;;5044925;28;20560;-73
2020/12/05 09:03:21;;;;;;;15.73;9.70;;;8.90;99.90;;;;;;5050413;28;20507;-74
2020/12/05 09:05:49;;;;;;;22.10;11.00;;;9.40;99.90;;;;;;5053087;28;21096;-74
2020/12/05 09:08:20;;;;;;;13.70;7.57;;;10.10;99.90;;;;;;5035981;28;20437;-75
2020/12/05 09:10:48;;;;;;;13.10;7.03;;;10.90;99.90;;;;;;5038305;28;20474;-74
2020/12/05 09:13:16;;;;;;;9.07;6.03;;;11.90;99.90;;;;;;5045992;28;20464;-74
2020/12/05 09:15:53;;;;;;;9.00;6.53;;;12.20;99.90;;;;;;5045977;28;20484;-74
2020/12/05 09:18:20;;;;;;;12.07;7.87;;;11.70;99.90;;;;;;5051224;28;20463;-74
2020/12/05 09:20:46;;;;;;;10.83;8.00;;;11.10;99.90;;;;;;5049007;28;20443;-73
2020/12/05 09:23:13;;;;;;;11.63;7.77;;;10.60;99.90;;;;;;5055975;28;20463;-70
2020/12/05 09:25:40;;;;;;;10.30;7.33;;;10.00;99.90;;;;;;5045465;28;20483;-74
2020/12/05 09:28:11;;;;;;;11.70;7.63;;;9.50;99.90;;;;;;5047332;28;20473;-73
2020/12/05 09:30:39;;;;;;;12.23;9.07;;;9.00;99.90;;;;;;5049702;28;20502;-72
2020/12/05 09:33:10;;;;;;;9.43;6.50;;;8.80;99.90;;;;;;5042255;28;21020;-73
2020/12/05 09:35:36;;;;;;;8.63;6.73;;;8.70;99.90;;;;;;5044120;28;20565;-74
2020/12/05 09:38:03;;;;;;;12.80;6.77;;;8.90;99.90;;;;;;5046240;28;20455;-73
2020/12/05 09:40:31;;;;;;;10.30;6.07;;;9.00;99.90;;;;;;5030850;28;21112;-74
2020/12/05 09:42:59;;;;;;;5.30;4.73;;;9.10;99.90;;;;;;5051841;28;20478;-73
2020/12/05 09:45:26;;;;;;;11.50;6.50;;;9.90;99.90;;;;;;5048031;28;20502;-73
2020/12/05 09:47:54;;;;;;;4.80;4.27;;;10.40;99.90;;;;;;5053219;28;20447;-72
2020/12/05 09:50:21;;;;;;;8.47;6.20;;;10.40;99.90;;;;;;5051097;28;20452;-72
2020/12/05 09:52:48;;;;;;;5.90;5.00;;;9.90;99.90;;;;;;5035354;28;20452;-74
2020/12/05 09:55:14;;;;;;;14.63;5.50;;;9.60;99.90;;;;;;5052003;28;20502;-74
2020/12/05 09:57:41;;;;;;;5.17;4.13;;;9.40;99.90;;;;;;5049127;28;20451;-74
2020/12/05 10:00:09;;;;;;;6.67;4.77;;;9.20;99.90;;;;;;5047821;28;21053;-73
2020/12/05 10:02:37;;;;;;;8.07;5.47;;;8.80;99.90;;;;;;5044366;28;20484;-74
2020/12/05 10:05:06;;;;;;;8.87;5.10;;;8.70;99.90;;;;;;5046251;28;20878;-74
2020/12/05 10:07:33;;;;;;;5.93;3.97;;;8.60;99.90;;;;;;5046587;28;20849;-74
2020/12/05 10:09:59;;;;;;;7.23;4.80;;;8.60;99.90;;;;;;5046035;28;20471;-73
2020/12/05 10:12:26;;;;;;;4.50;4.10;;;8.60;99.90;;;;;;5042461;28;20545;-73
2020/12/05 10:14:53;;;;;;;8.33;7.03;;;8.40;99.90;;;;;;5042243;28;20483;-73
2020/12/05 10:17:20;;;;;;;4.23;3.27;;;8.40;99.90;;;;;;5049822;28;20556;-72
2020/12/05 10:19:46;;;;;;;7.33;4.07;;;8.30;99.90;;;;;;5047055;28;22346;-73
2020/12/05 10:22:14;;;;;;;3.20;3.00;;;8.20;99.90;;;;;;5051844;28;20541;-73
2020/12/05 10:24:40;;;;;;;3.80;2.70;;;8.20;99.90;;;;;;5048632;28;20493;-75
2020/12/05 10:27:07;;;;;;;3.20;2.90;;;8.10;99.90;;;;;;5057590;28;20459;-75
2020/12/05 10:29:34;;;;;;;1.77;1.37;;;8.20;99.90;;;;;;5055403;28;20533;-75
2020/12/05 10:32:00;;;;;;;3.30;2.20;;;8.00;99.90;;;;;;5048914;28;20456;-72
2020/12/05 10:34:28;;;;;;;5.20;3.73;;;8.00;99.90;;;;;;5055810;28;20864;-71
2020/12/05 10:36:55;;;;;;;4.83;3.50;;;8.20;99.90;;;;;;5056005;28;20459;-73
2020/12/05 10:39:23;;;;;;;6.03;2.50;;;8.30;99.90;;;;;;5057245;28;20448;-75
2020/12/05 10:41:49;;;;;;;3.30;2.30;;;8.20;99.90;;;;;;5052304;28;20487;-74
2020/12/05 10:44:16;;;;;;;3.03;2.10;;;8.20;99.90;;;;;;5049016;28;20453;-72
2020/12/05 10:46:45;;;;;;;2.30;2.20;;;8.20;99.90;;;;;;5052162;28;20475;-73
2020/12/05 10:49:12;;;;;;;3.30;2.47;;;8.10;99.90;;;;;;5053699;28;20813;-72
2020/12/05 10:51:39;;;;;;;2.93;2.47;;;8.10;99.90;;;;;;5053780;28;20451;-72
2020/12/05 10:54:06;;;;;;;1.07;0.97;;;8.10;99.90;;;;;;5052310;28;20463;-73
2020/12/05 10:56:34;;;;;;;1.80;1.40;;;8.00;99.90;;;;;;5055976;28;20815;-73
2020/12/05 10:59:01;;;;;;;3.00;2.07;;;8.10;99.90;;;;;;5059287;28;20451;-73
2020/12/05 11:01:28;;;;;;;1.57;1.47;;;8.10;99.90;;;;;;5058638;28;20437;-73
2020/12/05 11:03:54;;;;;;;2.57;2.20;;;8.00;99.90;;;;;;5058116;28;20464;-74
2020/12/05 11:06:21;;;;;;;4.97;3.07;;;8.00;99.90;;;;;;5050875;28;20464;-73
2020/12/05 11:08:48;;;;;;;2.57;1.87;;;8.00;99.90;;;;;;5049321;28;20453;-75
2020/12/05 11:11:15;;;;;;;3.37;2.50;;;8.00;99.90;;;;;;5062054;28;20464;-73
2020/12/05 11:13:43;;;;;;;6.60;4.13;;;8.00;99.90;;;;;;5032738;28;20460;-74
2020/12/05 11:16:09;;;;;;;8.60;5.03;;;8.10;99.90;;;;;;5050713;28;20479;-73
2020/12/05 11:18:36;;;;;;;2.93;2.30;;;8.10;99.90;;;;;;5061938;28;20452;-73
2020/12/05 11:21:03;;;;;;;4.80;2.43;;;8.10;99.90;;;;;;5040316;28;20481;-74
2020/12/05 11:23:30;;;;;;;3.63;3.30;;;8.30;99.90;;;;;;5053773;28;20446;-74
2020/12/05 11:25:56;;;;;;;4.03;2.47;;;8.40;99.90;;;;;;5055404;28;20513;-73
2020/12/05 11:28:23;;;;;;;3.23;2.50;;;8.40;99.90;;;;;;5057695;28;20818;-74
2020/12/05 11:30:50;;;;;;;1.60;1.20;;;8.60;99.90;;;;;;5056473;28;20537;-73
2020/12/05 11:33:17;;;;;;;2.83;2.30;;;8.80;99.90;;;;;;5058758;28;20550;-74
2020/12/05 11:35:44;;;;;;;2.60;1.90;;;8.60;99.90;;;;;;5045148;28;20495;-74
2020/12/05 11:38:11;;;;;;;1.50;0.90;;;8.70;99.90;;;;;;5054908;28;20990;-74
2020/12/05 11:40:38;;;;;;;1.73;1.63;;;8.50;99.90;;;;;;5047399;28;20537;-74
2020/12/05 11:43:04;;;;;;;2.40;1.90;;;8.30;99.90;;;;;;5050528;28;20424;-74
2020/12/05 11:45:31;;;;;;;2.73;1.33;;;8.40;99.90;;;;;;5030786;28;20483;-72
2020/12/05 11:47:59;;;;;;;2.13;1.93;;;8.60;99.90;;;;;;5056921;28;20567;-74
2020/12/05 11:50:26;;;;;;;1.47;1.37;;;8.40;99.90;;;;;;5053862;28;20453;-75
2020/12/05 11:52:52;;;;;;;5.30;2.00;;;8.60;99.90;;;;;;5054956;28;20463;-74
2020/12/05 11:55:19;;;;;;;2.17;1.47;;;8.90;99.90;;;;;;5047386;28;20496;-74
2020/12/05 11:57:46;;;;;;;2.97;1.97;;;8.90;99.90;;;;;;5050399;28;20502;-74
2020/12/05 12:00:13;;;;;;;2.70;1.47;;;9.10;99.90;;;;;;5048176;28;20541;-74
2020/12/05 12:02:39;;;;;;;2.90;1.97;;;9.80;99.90;;;;;;5047619;28;20873;-72
2020/12/05 12:05:07;;;;;;;2.73;2.30;;;9.90;99.90;;;;;;5049552;28;20493;-72
2020/12/05 12:07:33;;;;;;;6.23;2.10;;;10.00;99.90;;;;;;5051247;28;20489;-73
2020/12/05 12:10:00;;;;;;;2.67;2.37;;;9.90;99.90;;;;;;5060404;28;20543;-73
2020/12/05 12:12:27;;;;;;;2.40;1.67;;;9.70;99.90;;;;;;5049566;28;20460;-73
2020/12/05 12:14:54;;;;;;;1.67;1.30;;;9.30;99.90;;;;;;5031632;28;20495;-72
2020/12/05 12:17:20;;;;;;;1.20;1.10;;;9.30;99.90;;;;;;5052944;28;20452;-73
2020/12/05 12:19:47;;;;;;;1.67;1.57;;;9.20;99.90;;;;;;5044916;28;20476;-73
2020/12/05 12:22:14;;;;;;;2.57;1.87;;;9.30;99.90;;;;;;5051601;28;21014;-72
2020/12/05 12:24:41;;;;;;;2.07;1.87;;;9.50;99.90;;;;;;5057677;28;20447;-73
2020/12/05 12:27:08;;;;;;;3.90;1.90;;;10.40;99.90;;;;;;5058349;28;20858;-73
2020/12/05 12:29:34;;;;;;;2.13;1.60;;;11.10;99.90;;;;;;5058780;28;20448;-72
2020/12/05 12:32:01;;;;;;;2.27;1.60;;;12.30;99.90;;;;;;5065914;28;20459;-71
2020/12/05 12:34:28;;;;;;;1.97;1.40;;;13.30;99.90;;;;;;5056468;28;20460;-72
2020/12/05 12:36:54;;;;;;;4.00;1.70;;;14.00;99.90;;;;;;5053137;28;20609;-72
2020/12/05 12:39:22;;;;;;;1.63;1.40;;;14.30;99.90;;;;;;5068681;28;20798;-72
2020/12/05 12:41:49;;;;;;;1.07;0.80;;;14.50;99.90;;;;;;5064782;28;20468;-72
2020/12/05 12:44:16;;;;;;;2.00;1.53;;;14.40;99.90;;;;;;5062720;28;20441;-73
2020/12/05 12:46:54;;;;;;;1.77;1.37;;;14.60;99.90;;;;;;5055670;28;21010;-73
2020/12/05 12:49:21;;;;;;;3.07;1.70;;;15.50;99.90;;;;;;5050233;28;20494;-73
2020/12/05 12:51:47;;;;;;;1.30;1.10;;;14.60;99.90;;;;;;5050201;28;20464;-73
2020/12/05 12:54:14;;;;;;;1.80;1.57;;;13.80;99.90;;;;;;5056155;28;20439;-73
2020/12/05 12:56:41;;;;;;;1.37;1.27;;;13.90;99.90;;;;;;5056801;28;20516;-72
2020/12/05 12:59:08;;;;;;;2.07;1.53;;;14.90;99.90;;;;;;5048056;28;20471;-72